sensor_id;sensor_type;location;lat;lon;timestamp;temperature;humidity
44707;DHT22;30433;45.596;8.408;2023-07-31T00:05:19;20.80;99.90
44707;DHT22;30433;45.596;8.408;2023-07-31T00:11:21;20.80;99.90
44707;DHT22;30433;45.596;8.408;2023-07-31T00:17:23;20.70;99.90
44707;DHT22;30433;45.596;8.408;2023-07-31T00:23:27;20.60;99.90
44707;DHT22;30433;45.596;8.408;2023-07-31T00:29:29;20.50;99.90
44707;DHT22;30433;45.596;8.408;2023-07-31T00:35:31;20.40;99.90
44707;DHT22;30433;45.596;8.408;2023-07-31T00:41:34;20.50;99.90
44707;DHT22;30433;45.596;8.408;2023-07-31T00:47:36;20.30;99.90
44707;DHT22;30433;45.596;8.408;2023-07-31T00:53:39;20.30;99.90
44707;DHT22;30433;45.596;8.408;2023-07-31T00:59:43;20.10;99.90
44707;DHT22;30433;45.596;8.408;2023-07-31T01:05:58;19.90;99.90
44707;DHT22;30433;45.596;8.408;2023-07-31T01:12:07;20.10;99.90
44707;DHT22;30433;45.596;8.408;2023-07-31T01:18:10;19.90;99.90
44707;DHT22;30433;45.596;8.408;2023-07-31T01:24:21;19.90;99.90
44707;DHT22;30433;45.596;8.408;2023-07-31T01:30:28;20.00;99.90
44707;DHT22;30433;45.596;8.408;2023-07-31T01:36:34;20.00;99.90
44707;DHT22;30433;45.596;8.408;2023-07-31T01:42:36;20.00;99.90
44707;DHT22;30433;45.596;8.408;2023-07-31T01:48:40;20.10;99.90
44707;DHT22;30433;45.596;8.408;2023-07-31T01:54:42;20.10;99.90
44707;DHT22;30433;45.596;8.408;2023-07-31T02:00:44;20.00;99.90
44707;DHT22;30433;45.596;8.408;2023-07-31T02:06:48;20.10;99.90
44707;DHT22;30433;45.596;8.408;2023-07-31T02:12:50;20.00;99.90
44707;DHT22;30433;45.596;8.408;2023-07-31T02:18:52;19.90;99.90
44707;DHT22;30433;45.596;8.408;2023-07-31T02:24:56;20.00;99.90
44707;DHT22;30433;45.596;8.408;2023-07-31T02:30:58;20.00;99.90
44707;DHT22;30433;45.596;8.408;2023-07-31T02:37:00;19.90;99.90
44707;DHT22;30433;45.596;8.408;2023-07-31T02:43:03;19.80;99.90
44707;DHT22;30433;45.596;8.408;2023-07-31T02:49:06;19.90;99.90
44707;DHT22;30433;45.596;8.408;2023-07-31T02:55:08;19.60;99.90
44707;DHT22;30433;45.596;8.408;2023-07-31T03:01:12;19.40;99.90
44707;DHT22;30433;45.596;8.408;2023-07-31T03:07:14;19.50;99.90
44707;DHT22;30433;45.596;8.408;2023-07-31T03:13:16;19.40;99.90
44707;DHT22;30433;45.596;8.408;2023-07-31T03:19:20;19.40;99.90
44707;DHT22;30433;45.596;8.408;2023-07-31T03:25:22;19.40;99.90
44707;DHT22;30433;45.596;8.408;2023-07-31T03:31:24;19.30;99.90
44707;DHT22;30433;45.596;8.408;2023-07-31T03:37:27;19.40;99.90
44707;DHT22;30433;45.596;8.408;2023-07-31T03:43:30;19.30;99.90
44707;DHT22;30433;45.596;8.408;2023-07-31T03:49:33;19.40;99.90
44707;DHT22;30433;45.596;8.408;2023-07-31T03:55:37;19.30;99.90
44707;DHT22;30433;45.596;8.408;2023-07-31T04:01:39;19.50;99.90
44707;DHT22;30433;45.596;8.408;2023-07-31T04:07:41;19.50;99.90
44707;DHT22;30433;45.596;8.408;2023-07-31T04:13:45;19.60;99.90
44707;DHT22;30433;45.596;8.408;2023-07-31T04:19:47;19.50;99.90
44707;DHT22;30433;45.596;8.408;2023-07-31T04:25:49;19.60;99.90
44707;DHT22;30433;45.596;8.408;2023-07-31T04:31:53;19.60;99.90
44707;DHT22;30433;45.596;8.408;2023-07-31T04:37:55;19.80;99.90
44707;DHT22;30433;45.596;8.408;2023-07-31T04:43:57;19.60;99.90
44707;DHT22;30433;45.596;8.408;2023-07-31T04:50:01;19.80;99.90
44707;DHT22;30433;45.596;8.408;2023-07-31T04:56:03;19.70;99.90
44707;DHT22;30433;45.596;8.408;2023-07-31T05:02:06;19.60;99.90
44707;DHT22;30433;45.596;8.408;2023-07-31T05:08:10;19.80;99.90
44707;DHT22;30433;45.596;8.408;2023-07-31T05:14:13;19.90;99.90
44707;DHT22;30433;45.596;8.408;2023-07-31T05:20:16;20.00;99.90
44707;DHT22;30433;45.596;8.408;2023-07-31T05:26:20;20.20;99.90
44707;DHT22;30433;45.596;8.408;2023-07-31T05:32:22;20.20;99.90
44707;DHT22;30433;45.596;8.408;2023-07-31T05:38:24;20.20;99.90
44707;DHT22;30433;45.596;8.408;2023-07-31T05:44:28;20.40;99.90
44707;DHT22;30433;45.596;8.408;2023-07-31T05:50:31;20.50;99.90
44707;DHT22;30433;45.596;8.408;2023-07-31T05:56:33;20.40;99.90
44707;DHT22;30433;45.596;8.408;2023-07-31T06:02:37;20.40;99.90
44707;DHT22;30433;45.596;8.408;2023-07-31T06:08:39;20.60;99.90
44707;DHT22;30433;45.596;8.408;2023-07-31T06:14:41;20.80;99.90
44707;DHT22;30433;45.596;8.408;2023-07-31T06:20:45;21.00;99.90
44707;DHT22;30433;45.596;8.408;2023-07-31T06:26:48;21.10;99.90
44707;DHT22;30433;45.596;8.408;2023-07-31T06:32:51;21.10;99.90
44707;DHT22;30433;45.596;8.408;2023-07-31T06:38:55;21.20;99.90
44707;DHT22;30433;45.596;8.408;2023-07-31T06:44:57;21.30;99.90
44707;DHT22;30433;45.596;8.408;2023-07-31T06:51:00;21.30;99.90
44707;DHT22;30433;45.596;8.408;2023-07-31T06:57:04;21.40;99.90
44707;DHT22;30433;45.596;8.408;2023-07-31T07:03:06;21.80;99.90
44707;DHT22;30433;45.596;8.408;2023-07-31T07:09:08;22.10;99.90
44707;DHT22;30433;45.596;8.408;2023-07-31T07:15:12;22.10;99.90
44707;DHT22;30433;45.596;8.408;2023-07-31T07:21:14;22.10;99.90
44707;DHT22;30433;45.596;8.408;2023-07-31T07:27:18;22.10;99.90
44707;DHT22;30433;45.596;8.408;2023-07-31T07:33:22;22.20;99.90
44707;DHT22;30433;45.596;8.408;2023-07-31T07:39:24;22.20;99.90
44707;DHT22;30433;45.596;8.408;2023-07-31T07:45:26;22.40;99.90
44707;DHT22;30433;45.596;8.408;2023-07-31T07:51:30;22.80;99.90
44707;DHT22;30433;45.596;8.408;2023-07-31T07:57:32;22.80;99.90
44707;DHT22;30433;45.596;8.408;2023-07-31T08:03:34;22.90;99.90
44707;DHT22;30433;45.596;8.408;2023-07-31T08:09:38;22.80;99.90
44707;DHT22;30433;45.596;8.408;2023-07-31T08:15:41;22.90;99.90
44707;DHT22;30433;45.596;8.408;2023-07-31T08:21:43;23.90;99.90
44707;DHT22;30433;45.596;8.408;2023-07-31T08:27:47;24.30;99.90
44707;DHT22;30433;45.596;8.408;2023-07-31T08:33:49;24.90;99.90
44707;DHT22;30433;45.596;8.408;2023-07-31T08:39:51;25.30;99.90
44707;DHT22;30433;45.596;8.408;2023-07-31T08:45:55;25.20;99.90
44707;DHT22;30433;45.596;8.408;2023-07-31T08:51:58;25.60;99.90
44707;DHT22;30433;45.596;8.408;2023-07-31T08:58:01;25.70;99.90
44707;DHT22;30433;45.596;8.408;2023-07-31T09:04:07;25.30;99.90
44707;DHT22;30433;45.596;8.408;2023-07-31T09:10:11;25.80;99.90
44707;DHT22;30433;45.596;8.408;2023-07-31T09:16:13;25.90;99.90
44707;DHT22;30433;45.596;8.408;2023-07-31T09:22:17;25.70;99.90
44707;DHT22;30433;45.596;8.408;2023-07-31T09:28:19;25.50;99.90
44707;DHT22;30433;45.596;8.408;2023-07-31T09:34:29;25.20;99.90
44707;DHT22;30433;45.596;8.408;2023-07-31T09:40:35;26.00;99.90
44707;DHT22;30433;45.596;8.408;2023-07-31T09:46:37;26.50;99.90
44707;DHT22;30433;45.596;8.408;2023-07-31T09:52:39;26.80;99.90
44707;DHT22;30433;45.596;8.408;2023-07-31T09:58:43;25.90;99.90
44707;DHT22;30433;45.596;8.408;2023-07-31T10:04:45;25.90;99.90
44707;DHT22;30433;45.596;8.408;2023-07-31T10:10:51;25.90;99.90
44707;DHT22;30433;45.596;8.408;2023-07-31T10:16:55;26.40;99.90
44707;DHT22;30433;45.596;8.408;2023-07-31T10:22:58;26.70;99.90
44707;DHT22;30433;45.596;8.408;2023-07-31T10:29:00;26.20;99.90
44707;DHT22;30433;45.596;8.408;2023-07-31T10:35:06;26.50;99.90
44707;DHT22;30433;45.596;8.408;2023-07-31T10:41:09;26.50;99.90
44707;DHT22;30433;45.596;8.408;2023-07-31T10:47:14;27.10;99.90
44707;DHT22;30433;45.596;8.408;2023-07-31T10:53:26;27.40;99.90
44707;DHT22;30433;45.596;8.408;2023-07-31T10:59:34;27.90;99.90
44707;DHT22;30433;45.596;8.408;2023-07-31T11:05:48;27.40;99.90
44707;DHT22;30433;45.596;8.408;2023-07-31T11:11:53;27.20;99.90
44707;DHT22;30433;45.596;8.408;2023-07-31T11:17:56;26.80;99.90
44707;DHT22;30433;45.596;8.408;2023-07-31T11:23:58;27.60;99.90
44707;DHT22;30433;45.596;8.408;2023-07-31T11:30:03;27.70;99.90
44707;DHT22;30433;45.596;8.408;2023-07-31T11:36:05;26.80;99.90
44707;DHT22;30433;45.596;8.408;2023-07-31T11:42:07;27.50;99.90
44707;DHT22;30433;45.596;8.408;2023-07-31T11:48:18;27.30;99.90
44707;DHT22;30433;45.596;8.408;2023-07-31T11:54:21;27.10;99.90
44707;DHT22;30433;45.596;8.408;2023-07-31T12:00:23;27.90;99.90
44707;DHT22;30433;45.596;8.408;2023-07-31T12:06:34;28.00;99.90
44707;DHT22;30433;45.596;8.408;2023-07-31T12:12:36;28.00;99.90
44707;DHT22;30433;45.596;8.408;2023-07-31T12:18:39;27.90;99.90
44707;DHT22;30433;45.596;8.408;2023-07-31T12:24:44;28.00;99.90
44707;DHT22;30433;45.596;8.408;2023-07-31T12:30:46;28.30;99.90
44707;DHT22;30433;45.596;8.408;2023-07-31T12:36:48;28.50;99.90
44707;DHT22;30433;45.596;8.408;2023-07-31T12:42:52;27.90;99.90
44707;DHT22;30433;45.596;8.408;2023-07-31T12:48:54;28.40;99.90
44707;DHT22;30433;45.596;8.408;2023-07-31T12:54:56;28.70;99.90
44707;DHT22;30433;45.596;8.408;2023-07-31T13:01:00;28.10;99.90
44707;DHT22;30433;45.596;8.408;2023-07-31T13:07:02;28.50;99.90
44707;DHT22;30433;45.596;8.408;2023-07-31T13:13:05;28.20;99.90
44707;DHT22;30433;45.596;8.408;2023-07-31T13:19:08;28.20;99.90
44707;DHT22;30433;45.596;8.408;2023-07-31T13:25:10;28.20;99.90
44707;DHT22;30433;45.596;8.408;2023-07-31T13:31:12;28.00;99.90
44707;DHT22;30433;45.596;8.408;2023-07-31T13:37:16;28.30;99.90
44707;DHT22;30433;45.596;8.408;2023-07-31T13:43:18;28.20;99.90
44707;DHT22;30433;45.596;8.408;2023-07-31T13:49:20;27.90;99.90
44707;DHT22;30433;45.596;8.408;2023-07-31T13:55:24;28.10;99.90
44707;DHT22;30433;45.596;8.408;2023-07-31T14:01:26;28.10;99.90
44707;DHT22;30433;45.596;8.408;2023-07-31T14:07:28;28.00;99.90
44707;DHT22;30433;45.596;8.408;2023-07-31T14:13:32;27.90;99.90
44707;DHT22;30433;45.596;8.408;2023-07-31T14:19:34;27.60;99.90
44707;DHT22;30433;45.596;8.408;2023-07-31T14:25:36;27.80;99.90
44707;DHT22;30433;45.596;8.408;2023-07-31T14:31:40;27.60;99.90
44707;DHT22;30433;45.596;8.408;2023-07-31T14:37:44;27.50;99.90
44707;DHT22;30433;45.596;8.408;2023-07-31T14:43:46;27.80;99.90
44707;DHT22;30433;45.596;8.408;2023-07-31T14:49:50;27.60;99.90
44707;DHT22;30433;45.596;8.408;2023-07-31T14:55:52;27.90;99.90
44707;DHT22;30433;45.596;8.408;2023-07-31T15:01:54;27.80;99.90
44707;DHT22;30433;45.596;8.408;2023-07-31T15:07:58;27.80;99.90
44707;DHT22;30433;45.596;8.408;2023-07-31T15:14:00;27.90;99.90
44707;DHT22;30433;45.596;8.408;2023-07-31T15:20:03;27.80;99.90
44707;DHT22;30433;45.596;8.408;2023-07-31T15:26:07;27.60;99.90
44707;DHT22;30433;45.596;8.408;2023-07-31T15:32:09;27.70;99.90
44707;DHT22;30433;45.596;8.408;2023-07-31T15:38:11;27.70;99.90
44707;DHT22;30433;45.596;8.408;2023-07-31T15:44:15;27.70;99.90
44707;DHT22;30433;45.596;8.408;2023-07-31T15:50:17;27.60;99.90
44707;DHT22;30433;45.596;8.408;2023-07-31T15:56:19;27.60;99.90
44707;DHT22;30433;45.596;8.408;2023-07-31T16:02:23;27.50;99.90
44707;DHT22;30433;45.596;8.408;2023-07-31T16:08:26;27.50;99.90
44707;DHT22;30433;45.596;8.408;2023-07-31T16:14:28;27.50;99.90
44707;DHT22;30433;45.596;8.408;2023-07-31T16:20:32;27.50;99.90
44707;DHT22;30433;45.596;8.408;2023-07-31T16:26:35;27.50;99.90
44707;DHT22;30433;45.596;8.408;2023-07-31T16:32:37;27.50;99.90
44707;DHT22;30433;45.596;8.408;2023-07-31T16:38:41;27.70;99.90
44707;DHT22;30433;45.596;8.408;2023-07-31T16:44:43;27.40;99.90
44707;DHT22;30433;45.596;8.408;2023-07-31T16:50:46;27.50;99.90
44707;DHT22;30433;45.596;8.408;2023-07-31T16:56:50;27.50;99.90
44707;DHT22;30433;45.596;8.408;2023-07-31T17:02:52;27.40;99.90
44707;DHT22;30433;45.596;8.408;2023-07-31T17:08:55;27.00;99.90
44707;DHT22;30433;45.596;8.408;2023-07-31T17:14:59;26.90;99.90
44707;DHT22;30433;45.596;8.408;2023-07-31T17:21:02;26.70;99.90
44707;DHT22;30433;45.596;8.408;2023-07-31T17:27:04;26.50;99.90
44707;DHT22;30433;45.596;8.408;2023-07-31T17:33:08;26.60;99.90
44707;DHT22;30433;45.596;8.408;2023-07-31T17:39:10;26.60;99.90
44707;DHT22;30433;45.596;8.408;2023-07-31T17:45:12;26.40;99.90
44707;DHT22;30433;45.596;8.408;2023-07-31T17:51:16;26.50;99.90
44707;DHT22;30433;45.596;8.408;2023-07-31T17:57:18;26.30;99.90
44707;DHT22;30433;45.596;8.408;2023-07-31T18:03:20;26.30;99.90
44707;DHT22;30433;45.596;8.408;2023-07-31T18:09:24;26.10;99.90
44707;DHT22;30433;45.596;8.408;2023-07-31T18:15:26;26.00;99.90
44707;DHT22;30433;45.596;8.408;2023-07-31T18:21:29;25.90;99.90
44707;DHT22;30433;45.596;8.408;2023-07-31T18:27:34;25.70;99.90
44707;DHT22;30433;45.596;8.408;2023-07-31T18:33:36;25.60;99.90
44707;DHT22;30433;45.596;8.408;2023-07-31T18:39:38;25.30;99.90
44707;DHT22;30433;45.596;8.408;2023-07-31T18:45:42;25.20;99.90
44707;DHT22;30433;45.596;8.408;2023-07-31T18:51:44;25.00;99.90
44707;DHT22;30433;45.596;8.408;2023-07-31T18:57:48;24.90;99.90
44707;DHT22;30433;45.596;8.408;2023-07-31T19:03:53;24.80;99.90
44707;DHT22;30433;45.596;8.408;2023-07-31T19:09:55;24.60;99.90
44707;DHT22;30433;45.596;8.408;2023-07-31T19:15:57;24.50;99.90
44707;DHT22;30433;45.596;8.408;2023-07-31T19:22:01;24.40;99.90
44707;DHT22;30433;45.596;8.408;2023-07-31T19:28:03;24.20;99.90
44707;DHT22;30433;45.596;8.408;2023-07-31T19:34:06;24.10;99.90
44707;DHT22;30433;45.596;8.408;2023-07-31T19:40:10;24.10;99.90
44707;DHT22;30433;45.596;8.408;2023-07-31T19:46:12;24.00;99.90
44707;DHT22;30433;45.596;8.408;2023-07-31T19:52:14;23.90;99.90
44707;DHT22;30433;45.596;8.408;2023-07-31T19:58:18;24.00;99.90
44707;DHT22;30433;45.596;8.408;2023-07-31T20:04:20;24.00;99.90
44707;DHT22;30433;45.596;8.408;2023-07-31T20:10:22;24.00;99.90
44707;DHT22;30433;45.596;8.408;2023-07-31T20:16:26;24.00;99.90
44707;DHT22;30433;45.596;8.408;2023-07-31T20:22:30;24.00;99.90
44707;DHT22;30433;45.596;8.408;2023-07-31T20:28:32;24.10;99.90
44707;DHT22;30433;45.596;8.408;2023-07-31T20:34:36;24.10;99.90
44707;DHT22;30433;45.596;8.408;2023-07-31T20:40:38;24.20;99.90
44707;DHT22;30433;45.596;8.408;2023-07-31T20:46:40;24.20;99.90
44707;DHT22;30433;45.596;8.408;2023-07-31T20:52:44;24.10;99.90
44707;DHT22;30433;45.596;8.408;2023-07-31T20:58:46;24.20;99.90
44707;DHT22;30433;45.596;8.408;2023-07-31T21:04:48;23.90;99.90
44707;DHT22;30433;45.596;8.408;2023-07-31T21:10:52;23.70;99.90
44707;DHT22;30433;45.596;8.408;2023-07-31T21:16:54;23.80;99.90
44707;DHT22;30433;45.596;8.408;2023-07-31T21:22:56;23.70;99.90
44707;DHT22;30433;45.596;8.408;2023-07-31T21:29:00;23.70;99.90
44707;DHT22;30433;45.596;8.408;2023-07-31T21:35:03;23.70;99.90
44707;DHT22;30433;45.596;8.408;2023-07-31T21:41:05;23.90;99.90
44707;DHT22;30433;45.596;8.408;2023-07-31T21:47:09;23.80;99.90
44707;DHT22;30433;45.596;8.408;2023-07-31T21:53:11;23.70;99.90
44707;DHT22;30433;45.596;8.408;2023-07-31T21:59:13;23.70;99.90
44707;DHT22;30433;45.596;8.408;2023-07-31T22:05:17;23.80;99.90
44707;DHT22;30433;45.596;8.408;2023-07-31T22:11:19;23.70;99.90
44707;DHT22;30433;45.596;8.408;2023-07-31T22:17:22;23.60;99.90
44707;DHT22;30433;45.596;8.408;2023-07-31T22:23:26;23.50;99.90
44707;DHT22;30433;45.596;8.408;2023-07-31T22:29:28;23.40;99.90
44707;DHT22;30433;45.596;8.408;2023-07-31T22:35:30;23.40;99.90
44707;DHT22;30433;45.596;8.408;2023-07-31T22:41:34;23.40;99.90
44707;DHT22;30433;45.596;8.408;2023-07-31T22:47:36;23.30;99.90
44707;DHT22;30433;45.596;8.408;2023-07-31T22:53:40;23.00;99.90
44707;DHT22;30433;45.596;8.408;2023-07-31T22:59:44;23.20;99.90
44707;DHT22;30433;45.596;8.408;2023-07-31T23:05:46;23.10;99.90
44707;DHT22;30433;45.596;8.408;2023-07-31T23:11:48;23.30;99.90
44707;DHT22;30433;45.596;8.408;2023-07-31T23:17:52;23.50;99.90
44707;DHT22;30433;45.596;8.408;2023-07-31T23:23:54;23.40;99.90
44707;DHT22;30433;45.596;8.408;2023-07-31T23:29:57;23.40;99.90
44707;DHT22;30433;45.596;8.408;2023-07-31T23:36:07;23.40;99.90
44707;DHT22;30433;45.596;8.408;2023-07-31T23:42:09;23.30;99.90
44707;DHT22;30433;45.596;8.408;2023-07-31T23:48:11;23.30;99.90
44707;DHT22;30433;45.596;8.408;2023-07-31T23:54:15;23.20;99.90
